Terminal Aerodrome Forecast
Issued by NWS

Home | Current Version | Previous Version | Text Only | Print | Product List | Glossary On
Versions: 1 2 3 4 5 6 7 8 9 10 11 12 13 14 15 16 17 18 19 20 21 22 23 24
886
FTAK31 PAJN 200533
TAFAPG
TAF
PAPG 200533Z 2006/2106 25003KT 3SM BR FEW004 BKN070
      TEMPO 2006/2010 VRB03KT 1SM BR OVC004
     FM201200 VRB03KT 3SM BR SCT004 BKN035 OVC050
     FM201800 09003KT 5SM BR VCSH BKN035 OVC050
     FM210000 10004KT 5SM BR OVC050
      AMD LTD TO CLD VIS AND WIND 2006/2015=

USA.gov is the U.S. government's official web portal to all federal, state and local government web resources and services.